Station Historical Data
Daily Summary for November 19, 2017 Units:  English    Metric   Both
Next Day »
Daily Weekly Monthly Yearly Custom
  High: Low: Average:
Temperature: 58.6 °F 40.2 °F 46.6 °F
Dew Point: 43.5 °F 34.7 °F 38.8 °F
Humidity: 85% 49% 75%
Wind Speed: 14.0mph 0.0mph 1mph
Wind Gust: 16.0mph - -
Wind- - ESE
Pressure: 30.25 in 30.13 in -
Precipitation: 0.00 in    
Historical Graphs
 
 
Tabular Data for November 19, 2017
Time Temperature Dew Point Pressure Wind Wind Speed Wind Gust Humidity Rainfall Rate (Hourly) solar Conditions
00:04 43.9 °F 39.4 °F 30.23 in Calm   7.0 mph 84% 0.00 in 0.00 W/m2
00:09 43.9 °F 39.4 °F 30.23 in Calm   8.0 mph 84% 0.00 in 0.00 W/m2
00:14 43.8 °F 39.3 °F 30.23 in Calm   8.0 mph 84% 0.00 in 0.00 W/m2
00:19 43.7 °F 39.2 °F 30.23 in ESE 5.0 mph 8.0 mph 84% 0.00 in 0.00 W/m2
00:24 43.6 °F 39.1 °F 30.23 in Calm   8.0 mph 84% 0.00 in 0.00 W/m2
00:34 43.5 °F 39.0 °F 30.23 in Calm     84% 0.00 in 0.00 W/m2
00:39 43.4 °F 38.9 °F 30.23 in Calm   7.0 mph 84% 0.00 in 0.00 W/m2
00:44 43.3 °F 38.5 °F 30.23 in Calm   6.0 mph 83% 0.00 in 0.00 W/m2
00:49 43.1 °F 38.3 °F 30.23 in Calm   7.0 mph 83% 0.00 in 0.00 W/m2
00:54 43.1 °F 38.6 °F 30.23 in ESE 4.0 mph 5.0 mph 84% 0.00 in 0.00 W/m2
00:59 42.9 °F 38.4 °F 30.24 in Calm   4.0 mph 84% 0.00 in 0.00 W/m2
01:04 42.8 °F 38.3 °F 30.23 in Calm     84% 0.00 in 0.00 W/m2
01:09 42.8 °F 38.3 °F 30.23 in Calm     84% 0.00 in 0.00 W/m2
01:14 42.7 °F 38.5 °F 30.24 in Calm     85% 0.00 in 0.00 W/m2
01:19 42.6 °F 38.4 °F 30.24 in Calm     85% 0.00 in 0.00 W/m2
01:24 42.6 °F 38.4 °F 30.24 in Calm   2.0 mph 85% 0.00 in 0.00 W/m2
01:45 42.3 °F 38.1 °F 30.25 in Calm     85% 0.00 in 0.00 W/m2
01:55 42.2 °F 38.0 °F 30.25 in Calm     85% 0.00 in 0.00 W/m2
02:00 42.2 °F 37.7 °F 30.25 in Calm   1.0 mph 84% 0.00 in 0.00 W/m2
02:05 42.1 °F 37.6 °F 30.25 in Calm     84% 0.00 in 0.00 W/m2
02:10 42.0 °F 37.5 °F 30.25 in ESE 2.0 mph 6.0 mph 84% 0.00 in 0.00 W/m2
02:15 41.9 °F 37.7 °F 30.24 in Calm   7.0 mph 85% 0.00 in 0.00 W/m2
02:20 41.8 °F 37.6 °F 30.24 in Calm   7.0 mph 85% 0.00 in 0.00 W/m2
02:25 41.7 °F 37.5 °F 30.24 in Calm   6.0 mph 85% 0.00 in 0.00 W/m2
02:30 41.7 °F 37.5 °F 30.24 in Calm   7.0 mph 85% 0.00 in 0.00 W/m2
02:35 41.6 °F 37.4 °F 30.24 in Calm   9.0 mph 85% 0.00 in 0.00 W/m2
02:40 41.5 °F 37.3 °F 30.24 in Calm   8.0 mph 85% 0.00 in 0.00 W/m2
02:45 41.5 °F 37.3 °F 30.24 in Calm   8.0 mph 85% 0.00 in 0.00 W/m2
02:55 41.5 °F 37.3 °F 30.24 in Calm   6.0 mph 85% 0.00 in 0.00 W/m2
03:00 41.5 °F 37.3 °F 30.24 in Calm   6.0 mph 85% 0.00 in 0.00 W/m2
03:20 41.4 °F 37.2 °F 30.23 in Calm   8.0 mph 85% 0.00 in 0.00 W/m2
03:25 41.4 °F 37.2 °F 30.23 in Calm   12.0 mph 85% 0.00 in 0.00 W/m2
03:35 41.4 °F 37.2 °F 30.23 in East 7.0 mph 12.0 mph 85% 0.00 in 0.00 W/m2
03:45 41.3 °F 37.1 °F 30.22 in Calm   11.0 mph 85% 0.00 in 0.00 W/m2
03:55 41.4 °F 37.2 °F 30.22 in East 6.0 mph 13.0 mph 85% 0.00 in 0.00 W/m2
04:15 41.3 °F 36.5 °F 30.21 in Calm   15.0 mph 83% 0.00 in 0.00 W/m2
04:25 41.4 °F 36.3 °F 30.22 in East 5.0 mph 12.0 mph 82% 0.00 in 0.00 W/m2
04:30 41.3 °F 36.2 °F 30.22 in Calm   7.0 mph 82% 0.00 in 0.00 W/m2
04:31 41.3 °F 36.2 °F 30.22 in Calm     82% 0.00 in 0.00 W/m2
04:41 41.2 °F 36.1 °F 30.22 in Calm     82% 0.00 in 0.00 W/m2
04:46 41.1 °F 36.0 °F 30.23 in East 7.0 mph 7.0 mph 82% 0.00 in 0.00 W/m2
04:51 41.1 °F 36.3 °F 30.23 in Calm     83% 0.00 in 0.00 W/m2
05:01 40.9 °F 36.1 °F 30.23 in Calm     83% 0.00 in 0.00 W/m2
05:06 40.7 °F 35.6 °F 30.23 in Calm   4.0 mph 82% 0.00 in 0.00 W/m2
05:11 40.7 °F 35.6 °F 30.23 in Calm   7.0 mph 82% 0.00 in 0.00 W/m2
05:16 40.7 °F 35.6 °F 30.23 in Calm   7.0 mph 82% 0.00 in 0.00 W/m2
05:21 40.6 °F 35.8 °F 30.22 in Calm   6.0 mph 83% 0.00 in 0.00 W/m2
05:25 40.5 °F 35.8 °F 30.23 in Calm     83% 0.00 in 0.00 W/m2
05:30 40.5 °F 35.8 °F 30.22 in Calm     83% 0.00 in 0.00 W/m2
05:40 40.5 °F 35.8 °F 30.22 in East 2.0 mph 5.0 mph 83% 0.00 in 0.00 W/m2
05:45 40.4 °F 35.3 °F 30.22 in East 2.0 mph 7.0 mph 82% 0.00 in 0.00 W/m2
05:51 40.5 °F 35.5 °F 30.22 in East 6.0 mph 7.0 mph 82% 0.00 in 0.00 W/m2
05:56 40.5 °F 35.5 °F 30.22 in East 6.0 mph 6.0 mph 82% 0.00 in 0.00 W/m2
06:01 40.4 °F 35.7 °F 30.22 in Calm     83% 0.00 in 0.00 W/m2
06:06 40.4 °F 35.7 °F 30.22 in Calm     83% 0.00 in 0.00 W/m2
06:11 40.4 °F 35.7 °F 30.22 in East 6.0 mph 6.0 mph 83% 0.00 in 0.00 W/m2
06:16 40.3 °F 35.6 °F 30.23 in East 4.0 mph 9.0 mph 83% 0.00 in 0.00 W/m2
06:21 40.3 °F 35.2 °F 30.23 in Calm   6.0 mph 82% 0.00 in 0.00 W/m2
06:26 40.3 °F 35.2 °F 30.23 in Calm   8.0 mph 82% 0.00 in 0.00 W/m2
06:31 40.3 °F 35.2 °F 30.22 in Calm   5.0 mph 82% 0.00 in 0.00 W/m2
06:36 40.2 °F 35.2 °F 30.22 in Calm   8.0 mph 82% 0.00 in 0.00 W/m2
06:41 40.2 °F 35.2 °F 30.22 in Calm   6.0 mph 82% 0.00 in 7.00 W/m2
06:46 40.2 °F 35.2 °F 30.21 in Calm   9.0 mph 82% 0.00 in 9.00 W/m2
06:51 40.2 °F 35.2 °F 30.22 in Calm   2.0 mph 82% 0.00 in 7.00 W/m2
06:56 40.3 °F 35.2 °F 30.21 in ESE 2.0 mph 7.0 mph 82% 0.00 in 11.00 W/m2
07:01 40.3 °F 35.2 °F 30.21 in Calm   7.0 mph 82% 0.00 in 16.00 W/m2
07:06 40.3 °F 34.9 °F 30.22 in East 4.0 mph 8.0 mph 81% 0.00 in 21.00 W/m2
07:16 40.4 °F 34.7 °F 30.21 in ESE 6.0 mph 6.0 mph 80% 0.00 in 30.00 W/m2
07:26 40.5 °F 34.8 °F 30.22 in ESE 8.0 mph 8.0 mph 80% 0.00 in 39.00 W/m2
07:31 40.6 °F 34.9 °F 30.22 in ESE 1.0 mph 7.0 mph 80% 0.00 in 54.00 W/m2
07:36 40.6 °F 34.9 °F 30.22 in Calm   8.0 mph 80% 0.00 in 79.00 W/m2
07:41 40.7 °F 35.0 °F 30.22 in Calm   5.0 mph 80% 0.00 in 97.00 W/m2
07:51 40.8 °F 35.1 °F 30.22 in Calm   7.0 mph 80% 0.00 in 134.00 W/m2
08:01 41.0 °F 35.3 °F 30.21 in ESE 5.0 mph 8.0 mph 80% 0.00 in 153.00 W/m2
08:06 41.2 °F 35.5 °F 30.21 in ESE 2.0 mph 7.0 mph 80% 0.00 in 148.00 W/m2
08:16 41.4 °F 35.4 °F 30.22 in ESE 4.0 mph 6.0 mph 79% 0.00 in 155.00 W/m2
08:21 41.6 °F 35.9 °F 30.22 in ESE 1.0 mph 5.0 mph 80% 0.00 in 193.00 W/m2
08:31 42.0 °F 36.3 °F 30.22 in ESE 5.0 mph 5.0 mph 80% 0.00 in 227.00 W/m2
08:41 42.3 °F 36.6 °F 30.22 in Calm   5.0 mph 80% 0.00 in 258.00 W/m2
08:46 42.5 °F 36.8 °F 30.22 in Calm     80% 0.00 in 271.00 W/m2
08:51 42.7 °F 37.0 °F 30.22 in ESE 6.0 mph 8.0 mph 80% 0.00 in 232.00 W/m2
08:56 42.9 °F 36.8 °F 30.22 in Calm   6.0 mph 79% 0.00 in 309.00 W/m2
09:06 43.3 °F 36.6 °F 30.22 in Calm     77% 0.00 in 336.00 W/m2
09:11 43.8 °F 37.7 °F 30.22 in Calm   5.0 mph 79% 0.00 in 355.00 W/m2
09:16 44.1 °F 37.4 °F 30.22 in ESE 1.0 mph 5.0 mph 77% 0.00 in 371.00 W/m2
09:22 44.3 °F 37.6 °F 30.22 in Calm     77% 0.00 in 323.00 W/m2
09:42 45.4 °F 39.0 °F 30.21 in Calm     78% 0.00 in 413.00 W/m2
09:47 45.6 °F 38.5 °F 30.21 in Calm   1.0 mph 76% 0.00 in 406.00 W/m2
09:52 45.8 °F 37.7 °F 30.21 in Calm   6.0 mph 73% 0.00 in 381.00 W/m2
09:57 46.1 °F 36.5 °F 30.21 in ESE 2.0 mph 4.0 mph 69% 0.00 in 417.00 W/m2
10:02 46.6 °F 37.7 °F 30.21 in ESE 4.0 mph 5.0 mph 71% 0.00 in 406.00 W/m2
10:07 46.9 °F 37.6 °F 30.20 in Calm     70% 0.00 in 441.00 W/m2
10:12 47.3 °F 36.9 °F 30.20 in Calm     67% 0.00 in 508.00 W/m2
10:17 47.8 °F 37.8 °F 30.20 in SE 6.0 mph 9.0 mph 68% 0.00 in 527.00 W/m2
10:27 48.7 °F 36.7 °F 30.19 in Calm   5.0 mph 63% 0.00 in 504.00 W/m2
10:37 49.6 °F 37.5 °F 30.20 in Calm     63% 0.00 in 434.00 W/m2
10:42 49.9 °F 38.6 °F 30.20 in Calm     65% 0.00 in 471.00 W/m2
10:52 50.5 °F 40.0 °F 30.20 in Calm     67% 0.00 in 374.00 W/m2
10:57 50.6 °F 40.4 °F 30.20 in Calm     68% 0.00 in 503.00 W/m2
11:02 50.8 °F 39.9 °F 30.20 in Calm     66% 0.00 in 476.00 W/m2
11:07 51.0 °F 39.7 °F 30.20 in Calm     65% 0.00 in 490.00 W/m2
11:12 51.3 °F 39.5 °F 30.20 in Calm     64% 0.00 in 540.00 W/m2
11:17 51.5 °F 38.9 °F 30.20 in Calm     62% 0.00 in 541.00 W/m2
11:22 51.8 °F 38.8 °F 30.20 in Calm     61% 0.00 in 550.00 W/m2
11:27 51.9 °F 38.9 °F 30.20 in SSE 5.0 mph 5.0 mph 61% 0.00 in 519.00 W/m2
11:32 52.1 °F 39.5 °F 30.19 in SSE 2.0 mph 5.0 mph 62% 0.00 in 513.00 W/m2
11:37 52.4 °F 39.4 °F 30.19 in Calm     61% 0.00 in 499.00 W/m2
11:42 52.6 °F 40.0 °F 30.19 in Calm     62% 0.00 in 563.00 W/m2
11:52 53.0 °F 39.5 °F 30.19 in Calm     60% 0.00 in 531.00 W/m2
11:57 53.1 °F 38.7 °F 30.18 in Calm     58% 0.00 in 559.00 W/m2
12:02 53.2 °F 38.4 °F 30.18 in Calm     57% 0.00 in 541.00 W/m2
12:07 53.3 °F 38.5 °F 30.18 in Calm   2.0 mph 57% 0.00 in 526.00 W/m2
12:08 53.4 °F 38.6 °F 30.18 in SSE 1.0 mph 2.0 mph 57% 0.00 in 534.00 W/m2
12:13 53.5 °F 39.5 °F 30.18 in Calm   6.0 mph 59% 0.00 in 483.00 W/m2
12:18 53.6 °F 39.2 °F 30.18 in Calm   2.0 mph 58% 0.00 in 527.00 W/m2
12:23 53.7 °F 39.7 °F 30.17 in Calm   1.0 mph 59% 0.00 in 492.00 W/m2
12:33 53.9 °F 40.8 °F 30.17 in Calm   4.0 mph 61% 0.00 in 478.00 W/m2
12:38 54.0 °F 40.9 °F 30.16 in SSE 5.0 mph 8.0 mph 61% 0.00 in 450.00 W/m2
12:43 54.1 °F 41.0 °F 30.16 in Calm   5.0 mph 61% 0.00 in 464.00 W/m2
12:48 54.2 °F 40.6 °F 30.16 in Calm     60% 0.00 in 420.00 W/m2
12:54 54.3 °F 40.3 °F 30.16 in Calm     59% 0.00 in 476.00 W/m2
12:59 54.4 °F 40.4 °F 30.16 in Calm     59% 0.00 in 387.00 W/m2
13:04 54.5 °F 41.3 °F 30.16 in Calm     61% 0.00 in 504.00 W/m2
13:24 54.9 °F 40.9 °F 30.15 in Calm     59% 0.00 in 394.00 W/m2
13:34 55.0 °F 42.2 °F 30.15 in Calm     62% 0.00 in 406.00 W/m2
13:39 55.0 °F 42.2 °F 30.15 in Calm     62% 0.00 in 315.00 W/m2
13:44 55.0 °F 41.4 °F 30.14 in Calm   3.0 mph 60% 0.00 in 425.00 W/m2
13:50 55.0 °F 41.0 °F 30.14 in Calm     59% 0.00 in 364.00 W/m2
13:55 55.0 °F 41.8 °F 30.14 in Calm   4.0 mph 61% 0.00 in 322.00 W/m2
14:00 55.0 °F 41.8 °F 30.14 in Calm     61% 0.00 in 362.00 W/m2
14:05 55.0 °F 43.5 °F 30.14 in Calm   5.0 mph 65% 0.00 in 380.00 W/m2
14:15 55.0 °F 41.0 °F 30.14 in Calm     59% 0.00 in 223.00 W/m2
14:25 54.9 °F 41.3 °F 30.15 in Calm     60% 0.00 in 295.00 W/m2
14:30 54.9 °F 42.1 °F 30.14 in Calm     62% 0.00 in 279.00 W/m2
14:35 54.8 °F 41.6 °F 30.14 in Calm     61% 0.00 in 232.00 W/m2
14:40 58.6 °F 39.5 °F 30.14 in Calm     49% 0.00 in 178.00 W/m2
14:45 58.2 °F 40.2 °F 30.14 in Calm     51% 0.00 in 211.00 W/m2
14:50 57.9 °F 39.9 °F 30.14 in SW 3.0 mph 4.0 mph 51% 0.00 in 214.00 W/m2
14:55 57.7 °F 41.7 °F 30.14 in Calm     55% 0.00 in 188.00 W/m2
15:00 57.2 °F 40.2 °F 30.14 in Calm     53% 0.00 in 156.00 W/m2
15:05 56.7 °F 40.7 °F 30.14 in Calm   1.0 mph 55% 0.00 in 137.00 W/m2
15:20 55.1 °F 41.5 °F 30.14 in Calm     60% 0.00 in 125.00 W/m2
15:30 54.2 °F 41.1 °F 30.14 in Calm     61% 0.00 in 109.00 W/m2
15:35 53.9 °F 41.6 °F 30.14 in Calm     63% 0.00 in 98.00 W/m2
15:40 53.5 °F 42.0 °F 30.14 in Calm     65% 0.00 in 90.00 W/m2
15:50 52.7 °F 41.7 °F 30.14 in Calm     66% 0.00 in 69.00 W/m2
15:55 52.3 °F 41.3 °F 30.14 in Calm     66% 0.00 in 60.00 W/m2
16:00 51.9 °F 42.1 °F 30.13 in Calm     69% 0.00 in 53.00 W/m2
16:10 51.3 °F 41.1 °F 30.14 in Calm     68% 0.00 in 35.00 W/m2
16:20 50.9 °F 41.1 °F 30.14 in Calm     69% 0.00 in 23.00 W/m2
16:25 50.7 °F 41.3 °F 30.13 in Calm     70% 0.00 in 18.00 W/m2
16:35 50.1 °F 41.1 °F 30.14 in Calm     71% 0.00 in 9.00 W/m2
16:50 49.2 °F 41.3 °F 30.13 in Calm     74% 0.00 in 0.00 W/m2
16:55 48.9 °F 41.3 °F 30.13 in Calm     75% 0.00 in 0.00 W/m2
17:00 48.7 °F 41.5 °F 30.13 in Calm     76% 0.00 in 0.00 W/m2
17:05 48.3 °F 41.1 °F 30.13 in Calm     76% 0.00 in 0.00 W/m2
17:10 48.0 °F 40.8 °F 30.13 in Calm     76% 0.00 in 0.00 W/m2
17:15 47.7 °F 41.5 °F 30.13 in Calm     79% 0.00 in 0.00 W/m2
17:20 47.4 °F 41.2 °F 30.13 in Calm     79% 0.00 in 0.00 W/m2
17:25 47.2 °F 40.7 °F 30.14 in Calm     78% 0.00 in 0.00 W/m2
17:35 46.9 °F 40.4 °F 30.14 in Calm     78% 0.00 in 0.00 W/m2
17:40 46.7 °F 40.5 °F 30.14 in Calm     79% 0.00 in 0.00 W/m2
17:50 46.5 °F 40.3 °F 30.14 in Calm     79% 0.00 in 0.00 W/m2
18:05 46.2 °F 40.4 °F 30.14 in Calm     80% 0.00 in 0.00 W/m2
18:16 46.0 °F 40.5 °F 30.15 in Calm     81% 0.00 in 0.00 W/m2
18:21 46.0 °F 40.5 °F 30.15 in Calm     81% 0.00 in 0.00 W/m2
18:26 45.9 °F 40.4 °F 30.15 in Calm     81% 0.00 in 0.00 W/m2
18:31 45.8 °F 40.3 °F 30.15 in Calm     81% 0.00 in 0.00 W/m2
18:36 45.8 °F 40.3 °F 30.15 in Calm     81% 0.00 in 0.00 W/m2
18:41 45.7 °F 40.5 °F 30.15 in Calm     82% 0.00 in 0.00 W/m2
18:51 45.6 °F 40.4 °F 30.15 in Calm     82% 0.00 in 0.00 W/m2
19:11 45.8 °F 40.9 °F 30.15 in Calm     83% 0.00 in 0.00 W/m2
19:16 45.8 °F 40.9 °F 30.16 in Calm     83% 0.00 in 0.00 W/m2
19:26 45.9 °F 41.0 °F 30.15 in ESE 6.0 mph 7.0 mph 83% 0.00 in 0.00 W/m2
19:31 46.0 °F 41.1 °F 30.16 in Calm   4.0 mph 83% 0.00 in 0.00 W/m2
19:41 46.1 °F 41.2 °F 30.16 in Calm   2.0 mph 83% 0.00 in 0.00 W/m2
19:51 46.3 °F 41.7 °F 30.16 in Calm     84% 0.00 in 0.00 W/m2
20:01 46.4 °F 41.5 °F 30.16 in Calm   7.0 mph 83% 0.00 in 0.00 W/m2
20:06 46.5 °F 41.3 °F 30.16 in Calm     82% 0.00 in 0.00 W/m2
20:11 46.5 °F 41.0 °F 30.16 in Calm   7.0 mph 81% 0.00 in 0.00 W/m2
20:16 46.6 °F 41.1 °F 30.16 in Calm   6.0 mph 81% 0.00 in 0.00 W/m2
20:21 46.7 °F 41.2 °F 30.16 in ESE 2.0 mph 8.0 mph 81% 0.00 in 0.00 W/m2
20:26 46.9 °F 41.4 °F 30.16 in ESE 4.0 mph 7.0 mph 81% 0.00 in 0.00 W/m2
20:31 46.9 °F 41.1 °F 30.16 in Calm     80% 0.00 in 0.00 W/m2
20:41 47.0 °F 41.2 °F 30.16 in ESE 1.0 mph 7.0 mph 80% 0.00 in 0.00 W/m2
20:46 47.0 °F 41.2 °F 30.16 in Calm     80% 0.00 in 0.00 W/m2
20:51 47.0 °F 41.2 °F 30.16 in Calm   4.0 mph 80% 0.00 in 0.00 W/m2
20:56 47.0 °F 40.8 °F 30.16 in Calm   9.0 mph 79% 0.00 in 0.00 W/m2
21:01 47.0 °F 40.5 °F 30.17 in Calm   7.0 mph 78% 0.00 in 0.00 W/m2
21:06 47.0 °F 40.5 °F 30.17 in ESE 5.0 mph 6.0 mph 78% 0.00 in 0.00 W/m2
21:11 47.0 °F 40.5 °F 30.17 in ESE 6.0 mph 6.0 mph 78% 0.00 in 0.00 W/m2
21:21 47.0 °F 40.5 °F 30.17 in ESE 1.0 mph 5.0 mph 78% 0.00 in 0.00 W/m2
21:26 47.0 °F 40.5 °F 30.17 in Calm   7.0 mph 78% 0.00 in 0.00 W/m2
21:31 47.0 °F 40.2 °F 30.17 in ESE 1.0 mph 8.0 mph 77% 0.00 in 0.00 W/m2
21:41 47.1 °F 39.9 °F 30.18 in ESE 1.0 mph 6.0 mph 76% 0.00 in 0.00 W/m2
21:46 47.1 °F 40.6 °F 30.17 in Calm   9.0 mph 78% 0.00 in 0.00 W/m2
22:01 47.2 °F 39.7 °F 30.19 in SE 6.0 mph 9.0 mph 75% 0.00 in 0.00 W/m2
22:06 47.2 °F 39.3 °F 30.19 in Calm   11.0 mph 74% 0.00 in 0.00 W/m2
22:12 47.2 °F 40.0 °F 30.19 in ESE 5.0 mph 11.0 mph 76% 0.00 in 0.00 W/m2
22:17 47.2 °F 39.7 °F 30.18 in Calm   2.0 mph 75% 0.00 in 0.00 W/m2
22:22 47.2 °F 40.0 °F 30.18 in Calm     76% 0.00 in 0.00 W/m2
22:27 47.2 °F 39.7 °F 30.18 in Calm   4.0 mph 75% 0.00 in 0.00 W/m2
22:32 47.2 °F 40.4 °F 30.18 in Calm   8.0 mph 77% 0.00 in 0.00 W/m2
22:37 47.2 °F 39.7 °F 30.18 in Calm   8.0 mph 75% 0.00 in 0.00 W/m2
22:47 47.2 °F 39.3 °F 30.18 in ESE 4.0 mph 11.0 mph 74% 0.00 in 0.00 W/m2
22:52 47.2 °F 39.7 °F 30.18 in Calm   6.0 mph 75% 0.00 in 0.00 W/m2
22:57 47.2 °F 39.3 °F 30.18 in Calm   1.0 mph 74% 0.00 in 0.00 W/m2
23:02 47.2 °F 39.0 °F 30.17 in ESE 6.0 mph 8.0 mph 73% 0.00 in 0.00 W/m2
23:07 47.2 °F 39.0 °F 30.16 in ESE 4.0 mph 9.0 mph 73% 0.00 in 0.00 W/m2
23:12 47.3 °F 39.5 °F 30.16 in Calm   9.0 mph 74% 0.00 in 0.00 W/m2
23:17 47.3 °F 38.7 °F 30.17 in ESE 6.0 mph 13.0 mph 72% 0.00 in 0.00 W/m2
23:28 47.4 °F 38.1 °F 30.15 in ESE 7.0 mph 14.0 mph 70% 0.00 in 0.00 W/m2
23:38 47.6 °F 38.0 °F 30.15 in SE 14.0 mph 14.0 mph 69% 0.00 in 0.00 W/m2
23:53 47.8 °F 38.5 °F 30.14 in ESE 4.0 mph 14.0 mph 70% 0.00 in 0.00 W/m2
23:58 47.9 °F 38.2 °F 30.13 in ESE 1.0 mph 16.0 mph 69% 0.00 in 0.00 W/m2
Foresthill Weather
 WU-history PHP script courtesy of   Juneau County Weather.
powered by Cumulus v1.9.3 (1059)
Ambient Weather VWS v14.00
Top Contact Website Map Copyright © 2007 - 2018 Foresthillweather.com Never base important decisions on this or any weather information obtained from the Internet